createdAt,value
2018-08-30T00:00:52.836Z,16.10
2018-08-30T00:04:02.748Z,15.80
2018-08-30T00:07:10.761Z,24.67
2018-08-30T00:10:16.945Z,15.40
2018-08-30T00:17:28.035Z,19.00
2018-08-30T00:24:33.553Z,14.20
2018-08-30T00:27:45.541Z,12.17
2018-08-30T00:30:50.848Z,11.90
2018-08-30T00:33:57.465Z,10.33
2018-08-30T00:37:03.505Z,7.40
2018-08-30T00:40:11.097Z,5.13
2018-08-30T00:43:14.330Z,7.57
2018-08-30T00:46:17.885Z,5.07
2018-08-30T00:49:23.260Z,3.20
2018-08-30T00:52:26.308Z,3.33
2018-08-30T00:55:29.759Z,4.13
2018-08-30T00:58:39.562Z,4.17
2018-08-30T01:01:42.811Z,3.07
2018-08-30T01:04:49.612Z,4.00
2018-08-30T01:07:52.720Z,3.40
2018-08-30T01:10:55.889Z,2.50
2018-08-30T01:13:59.040Z,4.30
2018-08-30T01:17:16.571Z,3.33
2018-08-30T01:20:20.739Z,7.00
2018-08-30T01:23:23.929Z,2.07
2018-08-30T01:26:27.192Z,2.23
2018-08-30T01:29:30.269Z,1.93
2018-08-30T01:32:33.473Z,4.63
2018-08-30T01:35:36.583Z,4.00
2018-08-30T01:38:39.803Z,3.40
2018-08-30T01:41:43.282Z,3.60
2018-08-30T01:44:50.064Z,5.67
2018-08-30T01:47:53.151Z,5.77
2018-08-30T01:50:57.515Z,14.03
2018-08-30T01:54:00.732Z,10.40
2018-08-30T01:57:06.209Z,9.60
2018-08-30T02:00:09.397Z,12.03
2018-08-30T02:03:18.863Z,12.47
2018-08-30T02:06:22.036Z,11.10
2018-08-30T02:09:25.065Z,12.37
2018-08-30T02:12:28.190Z,10.73
2018-08-30T02:15:31.262Z,9.80
2018-08-30T02:18:34.304Z,13.57
2018-08-30T02:21:37.405Z,15.20
2018-08-30T02:24:40.423Z,14.43
2018-08-30T02:27:43.467Z,22.33
2018-08-30T02:30:46.622Z,16.30
2018-08-30T02:33:49.738Z,15.23
2018-08-30T02:36:52.828Z,14.37
2018-08-30T02:39:55.990Z,17.53
2018-08-30T02:42:59.162Z,20.23
2018-08-30T02:46:02.618Z,16.83
2018-08-30T02:49:05.964Z,16.33
2018-08-30T02:52:09.011Z,19.50
2018-08-30T02:55:12.090Z,21.90
2018-08-30T02:58:15.176Z,18.27
2018-08-30T03:01:18.701Z,19.77
2018-08-30T03:04:21.754Z,21.10
2018-08-30T03:07:24.854Z,23.43
2018-08-30T03:10:27.911Z,16.43
2018-08-30T03:13:30.945Z,21.30
2018-08-30T03:16:34.090Z,17.60
2018-08-30T03:19:37.185Z,20.17
2018-08-30T03:22:40.957Z,20.40
2018-08-30T03:25:44.099Z,25.37
2018-08-30T03:28:47.115Z,19.40
2018-08-30T03:31:50.258Z,20.13
2018-08-30T03:34:53.491Z,15.60
2018-08-30T03:37:56.558Z,15.03
2018-08-30T03:40:59.707Z,18.90
2018-08-30T03:44:02.775Z,20.93
2018-08-30T03:47:05.924Z,18.37
2018-08-30T03:50:08.958Z,25.07
2018-08-30T03:53:11.983Z,20.03
2018-08-30T03:56:15.002Z,28.53
2018-08-30T03:59:18.101Z,19.73
2018-08-30T04:02:21.172Z,25.80
2018-08-30T04:05:24.236Z,25.33
2018-08-30T04:08:27.319Z,26.47
2018-08-30T04:11:30.303Z,26.60
2018-08-30T04:14:33.357Z,28.10
2018-08-30T04:17:36.344Z,25.27
2018-08-30T04:20:39.388Z,25.93
2018-08-30T04:23:42.487Z,25.63
2018-08-30T04:26:45.610Z,23.70
2018-08-30T04:29:48.733Z,38.20
2018-08-30T04:32:51.843Z,22.97
2018-08-30T04:35:55.017Z,26.37
2018-08-30T04:38:58.161Z,21.47
2018-08-30T04:42:01.196Z,25.70
2018-08-30T04:45:04.739Z,25.90
2018-08-30T04:48:07.773Z,28.93
2018-08-30T04:51:10.844Z,22.97
2018-08-30T04:54:13.886Z,28.17
2018-08-30T04:57:16.951Z,24.77
2018-08-30T05:00:20.134Z,23.43
2018-08-30T05:03:23.253Z,30.00
2018-08-30T05:06:26.385Z,29.37
2018-08-30T05:09:29.494Z,26.70
2018-08-30T05:12:32.636Z,32.10
2018-08-30T05:15:35.658Z,24.20
2018-08-30T05:18:38.687Z,27.10
2018-08-30T05:21:41.792Z,30.47
2018-08-30T05:24:44.816Z,26.50
2018-08-30T05:27:47.933Z,22.83
2018-08-30T05:30:51.042Z,32.77
2018-08-30T05:33:54.106Z,37.87
2018-08-30T05:36:57.148Z,34.50
2018-08-30T05:40:00.213Z,38.30
2018-08-30T05:43:03.686Z,34.87
2018-08-30T05:46:06.901Z,27.50
2018-08-30T05:49:09.899Z,29.60
2018-08-30T05:52:12.975Z,28.63
2018-08-30T05:55:16.004Z,28.80
2018-08-30T05:58:19.083Z,27.10
2018-08-30T06:01:22.184Z,30.00
2018-08-30T06:04:25.246Z,28.17
2018-08-30T06:07:28.335Z,22.93
2018-08-30T06:10:46.427Z,27.93
2018-08-30T06:13:49.502Z,34.43
2018-08-30T06:16:52.562Z,23.23
2018-08-30T06:19:55.567Z,28.70
2018-08-30T06:22:58.656Z,25.33
2018-08-30T06:26:01.703Z,21.53
2018-08-30T06:29:05.427Z,28.33
2018-08-30T06:32:08.639Z,24.23
2018-08-30T06:35:11.749Z,21.93
2018-08-30T06:38:14.737Z,23.50
2018-08-30T06:41:17.841Z,18.63
2018-08-30T06:44:20.911Z,18.70
2018-08-30T06:47:23.997Z,28.40
2018-08-30T06:50:27.075Z,18.93
2018-08-30T06:53:30.226Z,18.93
2018-08-30T06:56:33.334Z,13.27
2018-08-30T06:59:36.418Z,17.53
2018-08-30T07:02:39.459Z,16.83
2018-08-30T07:05:42.495Z,28.47
2018-08-30T07:08:45.824Z,21.27
2018-08-30T07:11:48.936Z,12.30
2018-08-30T07:14:52.082Z,21.23
2018-08-30T07:17:55.129Z,20.03
2018-08-30T07:20:58.198Z,16.80
2018-08-30T07:24:01.148Z,13.30
2018-08-30T07:27:04.291Z,17.97
2018-08-30T07:30:11.145Z,17.37
2018-08-30T07:33:14.188Z,10.27
2018-08-30T07:36:17.270Z,14.40
2018-08-30T07:39:20.339Z,15.70
2018-08-30T07:42:23.350Z,11.87
2018-08-30T07:45:26.422Z,19.37
2018-08-30T07:48:29.647Z,10.13
2018-08-30T07:51:32.675Z,15.57
2018-08-30T07:54:35.724Z,13.13
2018-08-30T07:57:38.806Z,21.40
2018-08-30T08:00:41.893Z,8.67
2018-08-30T08:03:44.883Z,11.80
2018-08-30T08:06:47.956Z,9.20
2018-08-30T08:09:50.971Z,8.60
2018-08-30T08:12:53.994Z,8.07
2018-08-30T08:15:57.078Z,11.13
2018-08-30T08:19:00.348Z,10.00
2018-08-30T08:22:03.413Z,11.13
2018-08-30T08:25:06.496Z,11.73
2018-08-30T08:28:09.630Z,10.63
2018-08-30T08:31:12.674Z,13.20
2018-08-30T08:34:15.781Z,7.37
2018-08-30T08:37:18.795Z,14.40
2018-08-30T08:40:21.837Z,12.70
2018-08-30T08:43:24.857Z,7.90
2018-08-30T08:46:27.930Z,16.10
2018-08-30T08:49:30.861Z,8.13
2018-08-30T08:52:33.889Z,11.10
2018-08-30T08:55:36.942Z,10.83
2018-08-30T08:58:40.030Z,15.33
2018-08-30T09:01:43.031Z,12.10
2018-08-30T09:04:46.101Z,10.37
2018-08-30T09:07:49.461Z,8.60
2018-08-30T09:10:52.502Z,8.90
2018-08-30T09:13:55.526Z,8.83
2018-08-30T09:16:58.603Z,11.53
2018-08-30T09:20:01.731Z,8.70
2018-08-30T09:23:11.630Z,5.53
2018-08-30T09:26:14.506Z,10.83
2018-08-30T09:29:17.662Z,10.57
2018-08-30T09:32:20.743Z,11.90
2018-08-30T09:35:23.818Z,8.00
2018-08-30T09:38:27.766Z,9.03
2018-08-30T09:41:30.788Z,6.57
2018-08-30T09:44:33.818Z,9.43
2018-08-30T09:47:36.849Z,7.43
2018-08-30T09:50:40.047Z,6.73
2018-08-30T09:53:43.043Z,6.10
2018-08-30T09:56:46.214Z,8.80
2018-08-30T09:59:49.174Z,11.20
2018-08-30T10:02:52.219Z,5.80
2018-08-30T10:05:55.401Z,11.83
2018-08-30T10:08:58.864Z,8.97
2018-08-30T10:12:01.902Z,6.43
2018-08-30T10:15:05.570Z,2.50
2018-08-30T10:18:08.731Z,5.93
2018-08-30T10:21:11.730Z,6.80
2018-08-30T10:24:14.757Z,3.13
2018-08-30T10:27:17.994Z,4.93
2018-08-30T10:30:21.077Z,14.07
2018-08-30T10:33:24.317Z,8.20
2018-08-30T10:36:27.378Z,4.20
2018-08-30T10:39:30.452Z,11.23
2018-08-30T10:42:33.574Z,6.60
2018-08-30T10:45:36.660Z,5.30
2018-08-30T10:48:39.751Z,5.80
2018-08-30T10:51:42.900Z,4.10
2018-08-30T10:54:46.078Z,6.80
2018-08-30T10:57:49.206Z,6.43
2018-08-30T11:00:52.342Z,5.77
2018-08-30T11:03:55.743Z,3.77
2018-08-30T11:06:58.903Z,5.80
2018-08-30T11:10:02.023Z,8.73
2018-08-30T11:13:05.192Z,6.73
2018-08-30T11:16:08.374Z,2.63
2018-08-30T11:19:11.372Z,9.50
2018-08-30T11:22:14.469Z,11.63
2018-08-30T11:25:17.846Z,4.50
2018-08-30T11:28:20.906Z,4.00
2018-08-30T11:31:23.910Z,6.93
2018-08-30T11:34:26.967Z,6.73
2018-08-30T11:37:30.109Z,5.20
2018-08-30T11:40:33.060Z,3.77
2018-08-30T11:43:36.184Z,4.10
2018-08-30T11:46:39.339Z,3.60
2018-08-30T11:49:42.420Z,5.83
2018-08-30T11:52:45.487Z,5.33
2018-08-30T11:55:48.491Z,5.23
2018-08-30T11:58:51.610Z,7.13
2018-08-30T12:01:54.622Z,6.20
2018-08-30T12:04:57.754Z,4.20
2018-08-30T12:08:00.884Z,6.80
2018-08-30T12:11:04.081Z,8.33
2018-08-30T12:14:06.943Z,9.73
2018-08-30T12:17:09.974Z,9.53
2018-08-30T12:20:12.980Z,3.93
2018-08-30T12:23:15.953Z,4.30
2018-08-30T12:26:18.988Z,10.97
2018-08-30T12:29:22.044Z,1.37
2018-08-30T12:32:25.304Z,3.63
2018-08-30T12:35:28.395Z,2.60
2018-08-30T12:38:31.502Z,6.73
2018-08-30T12:41:34.626Z,5.73
2018-08-30T12:44:37.690Z,4.13
2018-08-30T12:47:40.763Z,7.30
2018-08-30T12:50:44.015Z,7.03
2018-08-30T12:53:47.641Z,3.30
2018-08-30T12:56:50.770Z,4.00
2018-08-30T12:59:54.035Z,5.50
2018-08-30T13:02:56.555Z,4.97
2018-08-30T13:05:59.795Z,9.30
2018-08-30T13:09:02.818Z,5.73
2018-08-30T13:12:06.420Z,2.50
2018-08-30T13:15:10.147Z,5.43
2018-08-30T13:18:13.254Z,3.87
2018-08-30T13:21:16.485Z,3.77
2018-08-30T13:24:20.109Z,3.33
2018-08-30T13:27:29.872Z,8.90
2018-08-30T13:30:33.499Z,4.27
2018-08-30T13:33:37.018Z,4.00
2018-08-30T13:36:41.899Z,10.97
2018-08-30T13:39:45.284Z,4.27
2018-08-30T13:42:48.622Z,5.50
2018-08-30T13:45:51.612Z,8.80
2018-08-30T13:48:55.212Z,3.93
2018-08-30T13:51:58.513Z,5.47
2018-08-30T13:55:02.033Z,7.37
2018-08-30T13:58:05.219Z,6.30
2018-08-30T14:01:08.401Z,5.77
2018-08-30T14:04:11.133Z,21.40
2018-08-30T14:07:14.376Z,7.73
2018-08-30T14:10:17.679Z,4.30
2018-08-30T14:13:20.826Z,13.43
2018-08-30T14:16:23.667Z,4.20
2018-08-30T14:19:26.925Z,4.90
2018-08-30T14:22:30.212Z,2.47
2018-08-30T14:25:33.358Z,4.43
2018-08-30T14:28:36.655Z,5.43
2018-08-30T14:31:39.864Z,6.87
2018-08-30T14:34:42.956Z,4.77
2018-08-30T14:37:46.129Z,3.73
2018-08-30T14:40:49.255Z,12.23
2018-08-30T14:43:52.416Z,6.00
2018-08-30T14:46:55.639Z,1.77
2018-08-30T14:49:58.800Z,3.60
2018-08-30T14:53:02.065Z,6.90
2018-08-30T14:56:05.503Z,4.20
2018-08-30T14:59:08.764Z,3.13
2018-08-30T15:02:11.939Z,5.47
2018-08-30T15:05:15.300Z,4.93
2018-08-30T15:08:18.472Z,2.50
2018-08-30T15:11:21.821Z,9.13
2018-08-30T15:14:24.897Z,6.23
2018-08-30T15:17:28.178Z,8.33
2018-08-30T15:20:31.313Z,4.97
2018-08-30T15:23:34.737Z,5.80
2018-08-30T15:26:38.081Z,3.33
2018-08-30T15:29:41.123Z,4.57
2018-08-30T15:32:44.332Z,4.80
2018-08-30T15:35:47.540Z,9.03
2018-08-30T15:38:50.703Z,10.53
2018-08-30T15:41:53.915Z,6.60
2018-08-30T15:44:57.110Z,5.30
2018-08-30T15:48:00.274Z,6.50
2018-08-30T15:51:03.427Z,3.20
2018-08-30T15:54:06.851Z,4.10
2018-08-30T15:57:10.109Z,5.40
2018-08-30T16:00:14.849Z,6.53
2018-08-30T16:03:17.997Z,4.70
2018-08-30T16:06:21.186Z,6.07
2018-08-30T16:09:25.109Z,13.33
2018-08-30T16:12:28.337Z,9.33
2018-08-30T16:15:31.583Z,7.23
2018-08-30T16:18:34.965Z,12.70
2018-08-30T16:21:38.293Z,6.70
2018-08-30T16:24:41.401Z,8.00
2018-08-30T16:27:44.514Z,7.77
2018-08-30T16:30:47.858Z,7.50
2018-08-30T16:33:51.376Z,9.90
2018-08-30T16:36:54.569Z,5.73
2018-08-30T16:39:57.782Z,2.03
2018-08-30T16:43:00.962Z,3.90
2018-08-30T16:46:04.150Z,5.00
2018-08-30T16:49:07.693Z,6.50
2018-08-30T16:52:10.939Z,5.30
2018-08-30T16:55:14.069Z,5.50
2018-08-30T16:58:17.273Z,4.73
2018-08-30T17:01:20.910Z,7.67
2018-08-30T17:04:24.171Z,3.87
2018-08-30T17:07:27.359Z,2.27
2018-08-30T17:10:31.030Z,5.73
2018-08-30T17:13:34.249Z,3.67
2018-08-30T17:16:37.363Z,3.50
2018-08-30T17:19:40.616Z,15.47
2018-08-30T17:22:43.706Z,7.50
2018-08-30T17:25:46.869Z,6.07
2018-08-30T17:28:50.073Z,10.57
2018-08-30T17:31:53.359Z,9.77
2018-08-30T17:34:56.691Z,10.53
2018-08-30T17:38:00.528Z,2.90
2018-08-30T17:41:03.901Z,6.93
2018-08-30T17:44:07.656Z,4.47
2018-08-30T17:47:10.952Z,4.80
2018-08-30T17:50:14.075Z,4.53
2018-08-30T17:53:17.291Z,5.27
2018-08-30T17:56:20.320Z,2.70
2018-08-30T17:59:23.337Z,4.40
2018-08-30T18:02:26.540Z,12.97
2018-08-30T18:05:29.671Z,45.03
2018-08-30T18:08:32.620Z,6.70
2018-08-30T18:11:35.804Z,10.90
2018-08-30T18:14:38.918Z,2.43
2018-08-30T18:17:42.392Z,4.93
2018-08-30T18:20:46.033Z,4.87
2018-08-30T18:23:49.164Z,4.77
2018-08-30T18:26:52.348Z,5.03
2018-08-30T18:29:56.136Z,5.90
2018-08-30T18:33:00.508Z,3.97
2018-08-30T18:36:03.651Z,8.47
2018-08-30T18:39:09.150Z,6.17
2018-08-30T18:42:12.353Z,12.43
2018-08-30T18:45:15.494Z,2.40
2018-08-30T18:48:18.683Z,8.20
2018-08-30T18:51:22.180Z,10.40
2018-08-30T18:54:25.440Z,3.33
2018-08-30T18:57:28.843Z,6.07
2018-08-30T19:00:31.954Z,4.33
2018-08-30T19:03:35.028Z,3.63
2018-08-30T19:06:38.200Z,4.20
2018-08-30T19:09:41.961Z,6.73
2018-08-30T19:12:45.357Z,2.27
2018-08-30T19:15:54.362Z,3.93
2018-08-30T19:19:02.992Z,3.37
2018-08-30T19:22:06.422Z,2.43
2018-08-30T19:25:12.962Z,3.73
2018-08-30T19:28:16.131Z,8.13
2018-08-30T19:31:19.336Z,9.90
2018-08-30T19:34:22.519Z,11.50
2018-08-30T19:37:25.705Z,4.63
2018-08-30T19:40:34.366Z,2.80
2018-08-30T19:43:37.575Z,10.23
2018-08-30T19:46:40.740Z,8.53
2018-08-30T19:49:43.790Z,2.60
2018-08-30T19:52:47.290Z,9.13
2018-08-30T19:55:50.462Z,2.90
2018-08-30T19:58:54.626Z,2.80
2018-08-30T20:01:57.686Z,5.33
2018-08-30T20:05:01.014Z,3.37
2018-08-30T20:08:04.644Z,5.30
2018-08-30T20:11:07.781Z,2.60
2018-08-30T20:14:10.919Z,6.57
2018-08-30T20:17:14.061Z,3.43
2018-08-30T20:20:17.161Z,6.77
2018-08-30T20:23:20.570Z,10.97
2018-08-30T20:26:23.774Z,7.20
2018-08-30T20:29:26.887Z,4.93
2018-08-30T20:32:30.015Z,8.07
2018-08-30T20:35:33.230Z,6.70
2018-08-30T20:38:36.467Z,6.63
2018-08-30T20:41:39.715Z,2.30
2018-08-30T20:44:42.945Z,4.33
2018-08-30T20:47:46.123Z,11.60
2018-08-30T20:50:49.247Z,3.07
2018-08-30T20:53:52.410Z,10.23
2018-08-30T20:56:55.527Z,23.40
2018-08-30T20:59:58.544Z,4.47
2018-08-30T21:03:01.623Z,5.53
2018-08-30T21:06:04.645Z,3.47
2018-08-30T21:09:08.970Z,4.17
2018-08-30T21:12:11.908Z,18.67
2018-08-30T21:15:14.811Z,3.30
2018-08-30T21:18:18.160Z,3.33
2018-08-30T21:21:21.154Z,3.43
2018-08-30T21:24:25.781Z,3.30
2018-08-30T21:27:28.975Z,6.13
2018-08-30T21:30:32.101Z,4.87
2018-08-30T21:33:35.229Z,6.87
2018-08-30T21:36:38.183Z,3.77
2018-08-30T21:39:41.313Z,2.73
2018-08-30T21:42:44.454Z,6.17
2018-08-30T21:45:47.590Z,11.10
2018-08-30T21:48:51.012Z,10.43
2018-08-30T21:51:54.225Z,3.73
2018-08-30T21:54:57.316Z,6.63
2018-08-30T21:58:00.299Z,6.17
2018-08-30T22:01:03.258Z,4.73
2018-08-30T22:04:07.006Z,3.80
2018-08-30T22:07:10.047Z,4.97
2018-08-30T22:10:13.080Z,5.60
2018-08-30T22:13:16.236Z,3.50
2018-08-30T22:16:19.337Z,5.50
2018-08-30T22:19:22.382Z,10.07
2018-08-30T22:22:25.555Z,11.37
2018-08-30T22:25:28.567Z,6.20
2018-08-30T22:28:31.605Z,6.57
2018-08-30T22:31:34.968Z,5.30
2018-08-30T22:34:38.083Z,4.67
2018-08-30T22:37:41.099Z,2.70
2018-08-30T22:40:44.112Z,4.80
2018-08-30T22:43:47.277Z,1.83
2018-08-30T22:46:50.311Z,3.97
2018-08-30T22:49:53.366Z,2.37
2018-08-30T22:52:56.454Z,2.57
2018-08-30T22:55:59.506Z,2.43
2018-08-30T22:59:02.528Z,5.80
2018-08-30T23:02:05.455Z,3.00
2018-08-30T23:05:08.412Z,3.53
2018-08-30T23:08:11.422Z,4.10
2018-08-30T23:11:14.421Z,7.87
2018-08-30T23:14:18.066Z,8.20
2018-08-30T23:17:21.170Z,5.37
2018-08-30T23:20:24.333Z,4.20
2018-08-30T23:23:27.430Z,3.53
2018-08-30T23:26:30.586Z,5.60
2018-08-30T23:29:33.583Z,5.50
2018-08-30T23:32:36.633Z,5.43
2018-08-30T23:35:39.572Z,4.93
2018-08-30T23:38:42.496Z,6.43
2018-08-30T23:41:46.657Z,2.40
2018-08-30T23:44:49.652Z,5.20
2018-08-30T23:47:52.673Z,3.90
2018-08-30T23:50:55.731Z,6.73
2018-08-30T23:53:58.741Z,5.67
2018-08-30T23:57:01.737Z,2.00
